Time;durP1;ratioP1;P1;durP2;ratioP2;P2;SDS_P1;SDS_P2;PMS_P1;PMS_P2;Temp;Humidity;BMP_temperature;BMP_pressure;BME280_temperature;BME280_humidity;BME280_pressure;Samples;Min_cycle;Max_cycle;Signal;HPM_P1;HPM_P2
2024/01/14 00:02:09;;;;;;;34.90;21.83;;;0.80;49.90;;;;;;20811;6780;118066;-79
2024/01/14 00:04:45;;;;;;;42.43;28.57;;;0.60;50.20;;;;;;20431;6780;311354;-78
2024/01/14 00:07:22;;;;;;;36.43;22.20;;;0.60;50.20;;;;;;20846;6761;117946;-79
2024/01/14 00:09:58;;;;;;;41.47;30.20;;;0.60;50.00;;;;;;20659;6761;307306;-79
2024/01/14 00:12:33;;;;;;;43.78;30.88;;;0.70;50.20;;;;;;20631;6761;308268;-78
2024/01/14 00:15:09;;;;;;;37.97;22.73;;;1.00;50.00;;;;;;20862;6753;117515;-78
2024/01/14 00:17:45;;;;;;;37.63;20.97;;;0.90;49.70;;;;;;20943;6738;117711;-79
2024/01/14 00:20:21;;;;;;;43.27;29.47;;;0.70;50.00;;;;;;20675;6753;321776;-79
2024/01/14 00:22:56;;;;;;;36.10;21.23;;;0.70;50.00;;;;;;20912;6738;117419;-79
2024/01/14 00:25:31;;;;;;;42.87;29.63;;;0.70;49.90;;;;;;20780;6723;277144;-79
2024/01/14 00:28:07;;;;;;;42.30;30.67;;;0.80;49.80;;;;;;20765;6723;306639;-79
2024/01/14 00:30:43;;;;;;;38.53;23.37;;;1.00;49.40;;;;;;20934;6738;117517;-78
2024/01/14 00:33:18;;;;;;;44.23;30.33;;;0.90;49.20;;;;;;20601;6741;309173;-79
2024/01/14 00:35:54;;;;;;;43.63;30.67;;;1.00;49.30;;;;;;20733;6727;303345;-79
2024/01/14 00:38:29;;;;;;;38.17;24.23;;;1.10;48.90;;;;;;20963;6732;117210;-78
2024/01/14 00:41:05;;;;;;;33.97;21.17;;;1.10;48.80;;;;;;20946;6732;120152;-78
2024/01/14 00:43:40;;;;;;;45.37;30.00;;;0.80;49.10;;;;;;20628;6728;308822;-78
2024/01/14 00:46:20;;;;;;;33.83;21.93;;;0.80;49.40;;;;;;20944;6732;117247;-78
2024/01/14 00:48:56;;;;;;;37.60;21.47;;;0.80;49.40;;;;;;20952;6732;120296;-79
2024/01/14 00:51:32;;;;;;;39.83;27.60;;;0.60;49.60;;;;;;20739;6728;306569;-77
2024/01/14 00:54:07;;;;;;;31.23;20.57;;;0.60;49.80;;;;;;20835;6728;117879;-79
2024/01/14 00:56:43;;;;;;;40.93;28.83;;;0.60;49.60;;;;;;20762;6732;308450;-78
2024/01/14 00:59:19;;;;;;;41.70;29.23;;;0.90;48.90;;;;;;20737;6727;277191;-80
2024/01/14 01:01:55;;;;;;;33.07;21.87;;;0.90;48.80;;;;;;20975;6726;116962;-79
2024/01/14 01:04:30;;;;;;;34.40;19.50;;;0.80;48.50;;;;;;20825;6726;117759;-79
2024/01/14 01:07:06;;;;;;;41.20;28.23;;;0.50;48.90;;;;;;20695;6744;337616;-80
2024/01/14 01:09:41;;;;;;;44.07;29.57;;;0.50;49.00;;;;;;20742;6726;276682;-79
2024/01/14 01:12:17;;;;;;;33.23;21.30;;;0.70;48.50;;;;;;20965;6726;117533;-79
2024/01/14 01:14:53;;;;;;;42.77;29.47;;;0.70;48.40;;;;;;20582;6727;306172;-78
2024/01/14 01:17:28;;;;;;;37.93;22.87;;;0.70;48.60;;;;;;20918;6741;117043;-79
2024/01/14 01:20:08;;;;;;;30.33;18.57;;;0.30;48.90;;;;;;20951;6740;117462;-78
2024/01/14 01:22:41;;;;;;;39.92;27.90;;;0.40;49.10;;;;;;20700;6739;323952;-78
2024/01/14 01:25:18;;;;;;;40.67;28.37;;;0.30;49.00;;;;;;20743;6732;286367;-79
2024/01/14 01:27:53;;;;;;;41.43;28.80;;;0.60;48.40;;;;;;20779;6723;304667;-78
2024/01/14 01:30:30;;;;;;;40.97;28.83;;;0.90;47.30;;;;;;20763;6723;306112;-78
2024/01/14 01:33:07;;;;;;;39.40;28.03;;;0.90;47.30;;;;;;20710;6723;300028;-79
2024/01/14 01:35:44;;;;;;;31.00;19.83;;;1.00;46.90;;;;;;20970;6723;117521;-80
2024/01/14 01:38:19;;;;;;;33.13;18.90;;;0.80;47.00;;;;;;20988;6723;117198;-79
2024/01/14 01:40:54;;;;;;;36.73;25.60;;;0.40;47.50;;;;;;20737;6723;306171;-78
2024/01/14 01:43:31;;;;;;;36.23;26.40;;;0.50;47.30;;;;;;20674;6723;290739;-80
2024/01/14 01:46:06;;;;;;;35.70;21.07;;;0.50;47.30;;;;;;20949;6721;118258;-79
2024/01/14 01:48:42;;;;;;;39.20;26.87;;;0.40;47.30;;;;;;20757;6721;306032;-78
2024/01/14 01:51:20;;;;;;;35.10;20.07;;;0.30;47.50;;;;;;20953;6721;118436;-80
2024/01/14 01:53:56;;;;;;;41.53;27.23;;;0.20;47.60;;;;;;20627;6721;279608;-79
2024/01/14 01:56:32;;;;;;;41.05;28.35;;;0.30;47.90;;;;;;20757;6721;306931;-79
2024/01/14 01:59:08;;;;;;;42.78;29.30;;;0.60;46.90;;;;;;20742;6721;337219;-78
2024/01/14 02:01:44;;;;;;;41.85;29.33;;;0.60;46.90;;;;;;20766;6721;276308;-78
2024/01/14 02:04:21;;;;;;;37.77;21.53;;;0.70;46.60;;;;;;20868;6721;116640;-78
2024/01/14 02:06:58;;;;;;;30.77;19.20;;;0.50;46.80;;;;;;20975;6721;117558;-79
2024/01/14 02:09:34;;;;;;;29.40;19.10;;;0.20;47.40;;;;;;20976;6721;117208;-79
2024/01/14 02:12:09;;;;;;;41.00;26.93;;;-0.20;47.80;;;;;;20771;6721;306859;-79
2024/01/14 02:14:45;;;;;;;37.07;21.93;;;-0.20;48.10;;;;;;20761;6721;118602;-79
2024/01/14 02:17:21;;;;;;;39.08;27.90;;;-0.30;48.00;;;;;;20761;6721;334518;-79
2024/01/14 02:19:59;;;;;;;40.73;28.57;;;0.00;47.80;;;;;;20773;6721;307112;-79
2024/01/14 02:22:34;;;;;;;39.97;28.40;;;0.00;47.70;;;;;;20772;6721;276287;-78
2024/01/14 02:25:11;;;;;;;39.80;28.13;;;0.30;47.20;;;;;;20748;6721;294026;-80
2024/01/14 02:27:47;;;;;;;40.47;27.80;;;0.30;47.00;;;;;;20782;6721;305195;-79
2024/01/14 02:30:22;;;;;;;32.33;20.07;;;0.40;46.60;;;;;;20998;6721;117562;-79
2024/01/14 02:32:57;;;;;;;31.87;19.87;;;0.20;46.60;;;;;;20920;6721;147884;-79
2024/01/14 02:35:34;;;;;;;40.30;26.27;;;-0.20;47.70;;;;;;20787;6721;276319;-79
2024/01/14 02:38:09;;;;;;;34.90;19.93;;;-0.20;47.70;;;;;;21000;6721;117045;-79
2024/01/14 02:40:45;;;;;;;33.27;19.90;;;-0.30;47.70;;;;;;20994;6721;117320;-78
2024/01/14 02:43:20;;;;;;;38.10;26.70;;;-0.60;47.90;;;;;;20676;6721;308795;-78
2024/01/14 02:45:56;;;;;;;32.67;19.90;;;-0.50;48.10;;;;;;20987;6721;116412;-78
2024/01/14 02:48:32;;;;;;;35.17;19.43;;;-0.60;48.00;;;;;;20993;6721;117343;-78
2024/01/14 02:51:08;;;;;;;39.37;26.97;;;-0.70;48.50;;;;;;20755;6721;276585;-79
2024/01/14 02:53:43;;;;;;;34.03;21.07;;;-0.80;48.40;;;;;;20805;6739;118192;-79
2024/01/14 02:56:19;;;;;;;35.10;19.07;;;-0.80;48.20;;;;;;20887;6758;67639;-78
2024/01/14 02:58:59;;;;;;;33.97;19.43;;;-1.20;48.90;;;;;;20876;6758;117671;-79
2024/01/14 03:01:36;;;;;;;41.70;27.13;;;-1.20;48.90;;;;;;20660;6758;277337;-79
2024/01/14 03:04:11;;;;;;;36.40;20.00;;;-1.10;49.10;;;;;;20714;6758;118391;-78
2024/01/14 03:06:47;;;;;;;39.13;27.23;;;-1.10;48.90;;;;;;20692;6750;305292;-78
2024/01/14 03:09:23;;;;;;;42.27;28.93;;;-0.90;49.20;;;;;;20622;6771;308090;-80
2024/01/14 03:11:58;;;;;;;43.47;29.60;;;-0.60;48.40;;;;;;20667;6756;290754;-81
2024/01/14 03:14:34;;;;;;;33.27;20.63;;;-0.30;47.90;;;;;;20747;6756;68720;-78
2024/01/14 03:17:09;;;;;;;41.10;27.47;;;-0.40;47.80;;;;;;20700;6741;278737;-79
2024/01/14 03:19:45;;;;;;;40.33;28.60;;;-0.40;48.00;;;;;;20796;6740;305032;-78
2024/01/14 03:22:20;;;;;;;32.97;22.23;;;-0.20;47.50;;;;;;21008;6740;118099;-76
2024/01/14 03:24:56;;;;;;;33.20;19.33;;;-0.30;47.50;;;;;;20787;6814;116884;-78
2024/01/14 03:27:32;;;;;;;30.87;18.03;;;-0.50;47.90;;;;;;20982;6756;67673;-78
2024/01/14 03:30:09;;;;;;;30.97;18.43;;;-0.80;48.30;;;;;;20931;6768;117174;-78
2024/01/14 03:32:44;;;;;;;31.07;17.20;;;-1.00;48.50;;;;;;20803;6824;117931;-79
2024/01/14 03:35:20;;;;;;;38.43;26.00;;;-1.20;48.80;;;;;;20704;6743;293249;-78
2024/01/14 03:37:57;;;;;;;34.13;20.40;;;-1.10;48.90;;;;;;20900;6773;116614;-79
2024/01/14 03:40:32;;;;;;;37.80;26.50;;;-1.10;48.50;;;;;;20776;6770;277629;-77
2024/01/14 03:43:08;;;;;;;37.92;27.00;;;-1.00;48.60;;;;;;20696;6756;277354;-79
2024/01/14 03:45:45;;;;;;;36.35;26.52;;;-0.80;47.80;;;;;;20729;6754;306576;-79
2024/01/14 03:48:20;;;;;;;33.70;20.63;;;-0.50;47.20;;;;;;20825;6758;119793;-79
2024/01/14 03:50:57;;;;;;;36.57;25.70;;;-0.70;47.40;;;;;;20613;6771;308348;-80
2024/01/14 03:53:32;;;;;;;29.30;19.30;;;-0.70;47.40;;;;;;20489;6862;121012;-80
2024/01/14 03:56:08;;;;;;;32.83;18.53;;;-0.80;47.40;;;;;;20913;6743;117372;-79
2024/01/14 03:58:43;;;;;;;37.83;26.53;;;-1.10;47.80;;;;;;20618;6768;306739;-79
2024/01/14 04:01:20;;;;;;;34.63;19.90;;;-1.00;47.90;;;;;;20822;6771;119663;-79
2024/01/14 04:03:56;;;;;;;29.20;18.10;;;-1.00;47.80;;;;;;20662;6789;121170;-79
2024/01/14 04:06:31;;;;;;;29.00;17.87;;;-1.20;48.40;;;;;;20896;6756;120221;-78
2024/01/14 04:09:07;;;;;;;31.37;18.13;;;-1.40;48.40;;;;;;20830;6768;119986;-79
2024/01/14 04:11:43;;;;;;;39.23;26.50;;;-1.40;48.80;;;;;;20614;6771;308626;-79
2024/01/14 04:14:19;;;;;;;30.30;19.80;;;-1.40;48.70;;;;;;20704;6764;120231;-79
2024/01/14 04:16:55;;;;;;;40.40;27.50;;;-1.30;48.50;;;;;;20652;6764;278640;-79
2024/01/14 04:19:30;;;;;;;38.23;26.23;;;-1.20;48.40;;;;;;20652;6764;300446;-78
2024/01/14 04:22:06;;;;;;;33.57;20.70;;;-0.90;48.10;;;;;;20867;6764;117382;-78
2024/01/14 04:24:41;;;;;;;30.83;18.13;;;-0.90;47.90;;;;;;20693;6763;121974;-79
2024/01/14 04:27:17;;;;;;;36.97;25.13;;;-1.10;48.20;;;;;;20633;6777;277887;-79
2024/01/14 04:29:54;;;;;;;39.60;26.97;;;-1.00;48.60;;;;;;20673;6771;306819;-77
2024/01/14 04:32:30;;;;;;;31.47;19.87;;;-0.70;47.70;;;;;;20886;6778;120171;-79
2024/01/14 04:35:06;;;;;;;39.60;27.13;;;-0.70;47.70;;;;;;20527;6795;336636;-79
2024/01/14 04:37:41;;;;;;;30.87;19.70;;;-0.60;47.80;;;;;;20872;6773;117912;-78
2024/01/14 04:40:18;;;;;;;28.93;18.53;;;-0.70;47.60;;;;;;20825;6788;117444;-77
2024/01/14 04:42:53;;;;;;;38.40;25.80;;;-0.90;48.00;;;;;;20574;6790;280333;-78
2024/01/14 04:45:28;;;;;;;42.10;28.83;;;-0.80;48.10;;;;;;20526;6795;309220;-79
2024/01/14 04:48:05;;;;;;;34.77;22.03;;;-0.60;47.90;;;;;;20749;6810;119803;-77
2024/01/14 04:50:45;;;;;;;37.80;26.70;;;-0.60;47.50;;;;;;20512;6809;320445;-78
2024/01/14 04:53:19;;;;;;;41.40;28.90;;;-0.60;47.60;;;;;;20480;6789;310026;-78
2024/01/14 04:55:55;;;;;;;31.20;20.53;;;-0.30;47.40;;;;;;20802;6771;121150;-78
2024/01/14 04:58:32;;;;;;;32.37;19.33;;;-0.70;47.70;;;;;;20776;6792;119634;-79
2024/01/14 05:01:07;;;;;;;35.95;25.45;;;-0.70;47.60;;;;;;20527;6786;308342;-79
2024/01/14 05:03:44;;;;;;;37.30;27.20;;;-0.40;47.80;;;;;;20542;6766;340364;-80
2024/01/14 05:06:20;;;;;;;40.87;27.87;;;-0.40;47.70;;;;;;20542;6796;332786;-79
2024/01/14 05:08:55;;;;;;;34.70;21.73;;;-0.20;47.10;;;;;;20784;6788;118379;-78
2024/01/14 05:11:31;;;;;;;37.70;26.53;;;-0.30;47.30;;;;;;20580;6784;336939;-79
2024/01/14 05:14:08;;;;;;;31.73;20.33;;;-0.30;47.30;;;;;;20706;6786;115747;-79
2024/01/14 05:16:45;;;;;;;37.17;26.20;;;-0.40;47.30;;;;;;20662;6774;308724;-78
2024/01/14 05:19:20;;;;;;;39.87;28.07;;;-0.40;47.60;;;;;;20513;6803;309086;-79
2024/01/14 05:21:56;;;;;;;38.33;27.67;;;-0.10;47.20;;;;;;20616;6771;298571;-79
2024/01/14 05:24:32;;;;;;;33.67;20.63;;;0.10;46.60;;;;;;20698;6753;118232;-78
2024/01/14 05:27:07;;;;;;;28.67;18.17;;;-0.10;46.50;;;;;;20812;6768;117251;-80
2024/01/14 05:29:44;;;;;;;36.87;26.40;;;-0.30;47.40;;;;;;20563;6791;280042;-78
2024/01/14 05:32:19;;;;;;;31.00;20.47;;;-0.30;47.40;;;;;;20806;6787;117533;-78
2024/01/14 05:34:55;;;;;;;35.27;19.37;;;-0.40;47.90;;;;;;20599;6845;120759;-78
2024/01/14 05:37:31;;;;;;;38.73;26.80;;;-0.60;47.60;;;;;;20575;6806;308913;-79
2024/01/14 05:40:08;;;;;;;31.07;19.20;;;-0.50;47.80;;;;;;20781;6796;119257;-79
2024/01/14 05:42:44;;;;;;;31.80;17.63;;;-0.70;48.10;;;;;;20753;6792;118022;-82
2024/01/14 05:45:20;;;;;;;30.63;17.30;;;-0.70;48.10;;;;;;20757;6794;119755;-78
2024/01/14 05:47:55;;;;;;;25.97;15.93;;;-0.80;48.40;;;;;;20904;6743;117799;-79
2024/01/14 05:50:31;;;;;;;38.70;26.00;;;-0.90;48.60;;;;;;20709;6743;334961;-79
2024/01/14 05:53:06;;;;;;;37.23;27.07;;;-0.80;48.80;;;;;;20608;6743;309801;-79
2024/01/14 05:55:42;;;;;;;39.67;28.30;;;-0.50;48.20;;;;;;20583;6776;279826;-79
2024/01/14 05:58:21;;;;;;;38.67;27.80;;;0.00;47.20;;;;;;20645;6761;277948;-79
2024/01/14 06:11:41;;;;;;;30.17;19.97;;;0.60;45.70;;;;;;21551;6474;114885;-78
2024/01/14 06:14:07;;;;;;;38.70;27.90;;;0.40;45.90;;;;;;20717;6767;275889;-77
2024/01/14 06:16:32;;;;;;;39.93;28.67;;;0.30;46.30;;;;;;20651;6806;278014;-77
2024/01/14 06:18:59;;;;;;;33.50;20.83;;;0.20;47.10;;;;;;20910;6790;117598;-77
2024/01/14 06:21:24;;;;;;;31.87;19.37;;;0.20;46.40;;;;;;20942;6790;117448;-77
2024/01/14 06:23:51;;;;;;;30.62;18.25;;;-0.40;47.20;;;;;;20927;6790;117450;-78
2024/01/14 06:26:16;;;;;;;42.00;27.87;;;-0.40;47.20;;;;;;20733;6790;277146;-77
2024/01/14 06:28:43;;;;;;;40.50;28.43;;;-0.40;47.60;;;;;;20736;6790;305932;-78
2024/01/14 06:31:08;;;;;;;42.08;28.92;;;-0.10;47.50;;;;;;20713;6790;280038;-77
2024/01/14 06:33:35;;;;;;;43.30;29.20;;;0.20;46.20;;;;;;20722;6790;312708;-78
2024/01/14 06:36:00;;;;;;;41.87;28.97;;;0.20;46.70;;;;;;20732;6790;302130;-80
2024/01/14 06:38:26;;;;;;;33.05;20.60;;;0.30;46.50;;;;;;20931;6790;117038;-77
2024/01/14 06:40:52;;;;;;;32.47;19.73;;;0.20;46.60;;;;;;20957;6790;120995;-77
2024/01/14 06:43:17;;;;;;;31.10;18.25;;;-0.10;47.00;;;;;;20906;6790;117390;-78
2024/01/14 06:45:43;;;;;;;31.63;18.60;;;-0.40;47.50;;;;;;20858;6812;119216;-77
2024/01/14 06:48:08;;;;;;;41.47;27.07;;;-0.60;47.90;;;;;;20659;6809;308866;-77
2024/01/14 06:50:37;;;;;;;36.03;21.13;;;-0.50;48.20;;;;;;20842;6819;117431;-77
2024/01/14 06:53:03;;;;;;;33.13;19.97;;;-0.50;48.10;;;;;;20814;6807;118841;-77
2024/01/14 06:55:28;;;;;;;33.67;19.80;;;-0.60;48.30;;;;;;20817;6824;117423;-77
2024/01/14 06:57:54;;;;;;;41.80;28.35;;;-0.80;48.50;;;;;;20670;6805;277281;-77
2024/01/14 07:00:19;;;;;;;41.25;29.05;;;-0.70;49.30;;;;;;20641;6820;280829;-77
2024/01/14 07:02:46;;;;;;;32.90;20.23;;;-0.40;48.00;;;;;;20894;6806;117547;-75
2024/01/14 07:05:11;;;;;;;32.73;19.87;;;-0.40;48.00;;;;;;20857;6806;117529;-77
2024/01/14 07:07:37;;;;;;;41.30;27.43;;;-0.60;48.20;;;;;;20672;6807;307389;-77
2024/01/14 07:10:03;;;;;;;43.23;29.20;;;-0.30;48.20;;;;;;20671;6807;306986;-77
2024/01/14 07:12:30;;;;;;;41.47;29.03;;;-0.30;48.20;;;;;;20676;6807;320616;-79
2024/01/14 07:14:56;;;;;;;40.33;28.85;;;-0.10;47.90;;;;;;20685;6807;310217;-78
2024/01/14 07:17:22;;;;;;;35.42;22.55;;;0.00;47.40;;;;;;20882;6809;119742;-78
2024/01/14 07:19:48;;;;;;;34.80;19.93;;;0.00;47.40;;;;;;20853;6827;117882;-78
2024/01/14 07:22:13;;;;;;;40.12;27.33;;;-0.30;47.70;;;;;;20654;6816;307719;-78
2024/01/14 07:24:39;;;;;;;40.70;28.30;;;-0.30;48.00;;;;;;20655;6818;307955;-78
2024/01/14 07:27:05;;;;;;;35.50;21.10;;;-0.10;47.70;;;;;;20851;6803;120044;-79
2024/01/14 07:29:30;;;;;;;35.80;18.90;;;-0.20;47.50;;;;;;20858;6817;118096;-78
2024/01/14 07:31:56;;;;;;;41.42;26.90;;;-0.40;47.70;;;;;;20630;6818;277123;-78
2024/01/14 07:34:21;;;;;;;33.10;21.05;;;-0.40;48.10;;;;;;20791;6832;117789;-80
2024/01/14 07:36:47;;;;;;;32.33;18.97;;;-0.40;48.10;;;;;;20843;6818;117375;-77
2024/01/14 07:39:12;;;;;;;32.90;18.00;;;-0.60;48.30;;;;;;20831;6824;117771;-79
2024/01/14 07:41:39;;;;;;;39.97;26.43;;;-0.80;48.50;;;;;;20669;6813;307658;-78
2024/01/14 07:44:05;;;;;;;43.42;29.12;;;-0.70;48.70;;;;;;20619;6824;306545;-79
2024/01/14 07:46:29;;;;;;;39.23;22.47;;;-0.40;48.50;;;;;;20870;6809;117781;-79
2024/01/14 07:48:55;;;;;;;36.30;20.50;;;-0.30;48.20;;;;;;20844;6824;116631;-78
2024/01/14 07:51:20;;;;;;;34.07;19.37;;;-0.50;48.50;;;;;;20816;6826;117454;-78
2024/01/14 07:53:47;;;;;;;44.13;27.63;;;-0.70;48.60;;;;;;20659;6811;306665;-79
2024/01/14 07:56:14;;;;;;;37.10;22.00;;;-0.60;48.90;;;;;;20880;6813;117867;-80
2024/01/14 07:58:40;;;;;;;34.47;21.57;;;-0.70;48.80;;;;;;20855;6813;120546;-78
2024/01/14 08:01:07;;;;;;;31.17;19.20;;;-0.70;48.80;;;;;;20842;6810;118722;-77
2024/01/14 08:03:32;;;;;;;44.63;28.73;;;-0.80;49.10;;;;;;20615;6827;277922;-77
2024/01/14 08:05:59;;;;;;;44.30;29.65;;;-0.60;49.20;;;;;;20586;6833;276572;-79
2024/01/14 08:08:25;;;;;;;46.15;30.45;;;-0.30;48.90;;;;;;20599;6833;305880;-78
2024/01/14 08:10:51;;;;;;;37.93;22.93;;;0.00;48.30;;;;;;20820;6827;118003;-77
2024/01/14 08:13:16;;;;;;;39.28;21.60;;;-0.10;48.10;;;;;;20787;6832;117598;-78
2024/01/14 08:15:42;;;;;;;44.70;28.53;;;-0.20;48.30;;;;;;20552;6832;338334;-78
2024/01/14 08:18:08;;;;;;;41.42;22.52;;;-0.20;48.60;;;;;;20800;6832;117737;-78
2024/01/14 08:20:33;;;;;;;34.30;20.23;;;-0.20;48.60;;;;;;20845;6812;118137;-80
2024/01/14 08:22:58;;;;;;;40.70;22.27;;;-0.30;48.80;;;;;;20822;6817;129883;-77
2024/01/14 08:25:24;;;;;;;36.87;19.93;;;-0.50;49.00;;;;;;20856;6817;120497;-76
2024/01/14 08:27:55;;;;;;;33.88;18.65;;;-0.70;49.20;;;;;;20803;6833;117611;-78
2024/01/14 08:30:16;;;;;;;34.00;18.67;;;-0.80;49.50;;;;;;20778;6833;117468;-78
2024/01/14 08:32:43;;;;;;;36.20;17.67;;;-0.80;49.70;;;;;;20811;6832;117515;-79
2024/01/14 08:35:10;;;;;;;37.03;19.70;;;-1.00;50.10;;;;;;20819;6822;118799;-79
2024/01/14 08:37:36;;;;;;;36.67;19.67;;;-1.10;50.00;;;;;;20848;6816;119942;-79
2024/01/14 08:40:03;;;;;;;45.12;27.83;;;-0.90;50.10;;;;;;20640;6815;277089;-78
2024/01/14 08:42:30;;;;;;;41.60;24.73;;;-0.90;50.10;;;;;;20876;6817;118692;-78
2024/01/14 08:45:00;;;;;;;44.13;29.33;;;-0.80;49.80;;;;;;20658;6818;279278;-81
2024/01/14 08:47:26;;;;;;;44.85;29.52;;;-0.60;49.60;;;;;;20606;6803;352123;-78
2024/01/14 08:49:52;;;;;;;34.90;20.35;;;-0.20;48.90;;;;;;20829;6803;118380;-76
2024/01/14 08:52:17;;;;;;;37.15;19.70;;;-0.20;48.50;;;;;;20899;6802;114731;-81
2024/01/14 08:54:44;;;;;;;43.10;28.05;;;-0.30;48.90;;;;;;20689;6803;322395;-80
2024/01/14 08:57:11;;;;;;;47.27;30.63;;;0.00;48.20;;;;;;20761;6607;334358;-83
2024/01/14 08:59:46;;;;;;;34.30;20.87;;;0.00;48.20;;;;;;21143;6675;117889;-80
2024/01/14 09:02:21;;;;;;;34.63;19.97;;;0.00;48.00;;;;;;21125;6690;117290;-83
2024/01/14 09:04:58;;;;;;;45.40;28.53;;;-0.20;48.30;;;;;;20677;6746;308280;-81
2024/01/14 09:07:34;;;;;;;36.87;21.30;;;-0.10;48.60;;;;;;21104;6675;117258;-77
2024/01/14 09:10:13;;;;;;;43.20;27.80;;;-0.10;48.50;;;;;;21135;6675;116887;-77
2024/01/14 09:12:47;;;;;;;50.43;27.63;;;-0.30;49.20;;;;;;21108;6675;118130;-76
2024/01/14 09:15:23;;;;;;;41.37;22.43;;;-0.40;49.10;;;;;;21115;6675;119187;-79
2024/01/14 09:17:59;;;;;;;43.37;28.37;;;-0.40;49.50;;;;;;20879;6690;304178;-76
2024/01/14 09:20:34;;;;;;;45.70;27.73;;;-0.20;49.50;;;;;;21028;6705;117648;-75
2024/01/14 09:23:10;;;;;;;38.33;23.57;;;0.00;49.40;;;;;;21004;6694;118595;-74
2024/01/14 09:25:45;;;;;;;38.33;22.80;;;0.10;49.80;;;;;;21084;6692;116832;-75
2024/01/14 09:28:24;;;;;;;42.60;27.93;;;0.10;50.00;;;;;;20800;6708;304723;-75
2024/01/14 09:30:56;;;;;;;39.40;23.53;;;0.50;49.40;;;;;;21034;6706;116825;-76
2024/01/14 09:33:32;;;;;;;39.37;23.63;;;0.60;48.70;;;;;;20938;6706;117562;-75
2024/01/14 09:36:09;;;;;;;44.27;29.57;;;0.70;47.90;;;;;;20810;6713;307085;-75
2024/01/14 09:38:44;;;;;;;35.77;22.23;;;0.70;47.90;;;;;;21060;6711;119082;-76
2024/01/14 09:41:23;;;;;;;34.63;20.63;;;0.80;47.70;;;;;;21011;6696;117396;-76
2024/01/14 09:43:59;;;;;;;37.80;25.40;;;0.70;48.10;;;;;;20666;6726;311321;-76
2024/01/14 09:46:34;;;;;;;41.83;28.40;;;0.90;47.60;;;;;;20777;6710;278068;-75
2024/01/14 09:49:13;;;;;;;39.70;28.73;;;1.20;46.50;;;;;;20730;6731;300300;-76
2024/01/14 09:51:48;;;;;;;39.35;28.08;;;1.50;45.80;;;;;;20820;6714;277854;-74
2024/01/14 09:54:24;;;;;;;38.03;27.75;;;1.80;45.20;;;;;;20736;6702;307887;-74
2024/01/14 09:57:01;;;;;;;32.00;20.47;;;2.00;44.80;;;;;;21036;6702;117327;-76
2024/01/14 09:59:37;;;;;;;32.10;19.73;;;1.90;44.80;;;;;;21053;6702;117320;-77
2024/01/14 10:02:12;;;;;;;38.50;26.67;;;1.60;45.30;;;;;;20840;6702;335759;-77
2024/01/14 10:04:47;;;;;;;32.50;19.20;;;1.60;45.00;;;;;;20929;6702;117340;-75
2024/01/14 10:07:23;;;;;;;38.07;27.13;;;1.50;45.20;;;;;;20785;6711;337079;-78
2024/01/14 10:09:59;;;;;;;38.00;27.27;;;1.60;45.00;;;;;;20799;6706;334448;-75
2024/01/14 10:12:34;;;;;;;38.73;27.50;;;1.80;44.10;;;;;;20777;6722;304625;-75
2024/01/14 10:15:10;;;;;;;36.40;23.03;;;2.00;44.00;;;;;;21032;6701;116873;-75
2024/01/14 10:17:45;;;;;;;30.63;18.83;;;1.90;44.30;;;;;;21074;6701;116780;-75
2024/01/14 10:20:21;;;;;;;40.97;23.80;;;1.70;44.80;;;;;;21038;6686;116929;-75
2024/01/14 10:22:56;;;;;;;29.87;19.13;;;1.50;45.50;;;;;;20953;6729;117050;-75
2024/01/14 10:25:33;;;;;;;34.57;24.87;;;1.60;45.90;;;;;;20822;6705;306054;-74
2024/01/14 10:28:08;;;;;;;35.00;22.87;;;1.60;45.90;;;;;;21023;6705;117129;-73
2024/01/14 10:30:44;;;;;;;31.67;18.87;;;1.70;45.80;;;;;;21068;6705;116862;-74
2024/01/14 10:33:19;;;;;;;30.47;18.47;;;1.70;45.90;;;;;;20963;6705;117508;-74
2024/01/14 10:35:55;;;;;;;37.90;27.17;;;1.60;46.30;;;;;;20798;6702;305699;-74
2024/01/14 10:38:31;;;;;;;30.77;19.97;;;1.80;46.00;;;;;;21037;6705;117951;-74
2024/01/14 10:41:07;;;;;;;36.00;26.20;;;2.20;45.10;;;;;;20802;6707;305911;-75
2024/01/14 10:43:42;;;;;;;30.73;20.03;;;2.20;45.10;;;;;;20957;6705;117878;-77
2024/01/14 10:46:18;;;;;;;30.30;19.13;;;2.30;45.10;;;;;;21044;6705;118387;-75
2024/01/14 10:49:06;;;;;;;36.58;24.92;;;2.50;44.60;;;;;;20832;6702;304459;-77
2024/01/14 10:51:41;;;;;;;30.80;18.97;;;2.50;44.50;;;;;;21076;6691;117052;-76
2024/01/14 10:54:24;;;;;;;32.87;24.60;;;2.70;44.80;;;;;;20696;6687;309542;-80
2024/01/14 10:57:03;;;;;;;35.38;24.80;;;2.80;44.90;;;;;;20792;6687;325329;-78
2024/01/14 10:59:38;;;;;;;30.70;20.03;;;3.20;44.60;;;;;;21092;6687;118165;-79
2024/01/14 11:02:17;;;;;;;30.87;17.90;;;3.30;44.70;;;;;;21048;6687;116805;-78
2024/01/14 11:04:52;;;;;;;33.20;24.23;;;3.30;44.90;;;;;;20615;6687;308921;-77
2024/01/14 11:07:28;;;;;;;30.33;19.13;;;3.50;43.90;;;;;;20998;6709;117534;-76
2024/01/14 11:10:04;;;;;;;27.37;17.70;;;3.60;44.00;;;;;;21043;6702;117302;-77
2024/01/14 11:12:39;;;;;;;34.03;24.93;;;3.60;44.40;;;;;;20821;6701;304935;-75
2024/01/14 11:15:28;;;;;;;31.57;19.90;;;3.70;43.50;;;;;;21023;6701;117383;-77
2024/01/14 11:18:30;;;;;;;33.43;24.00;;;3.80;43.60;;;;;;20810;6701;337133;-77
2024/01/14 11:21:19;;;;;;;31.37;23.55;;;4.10;42.90;;;;;;20855;6687;313514;-75
2024/01/14 11:23:54;;;;;;;30.08;23.05;;;4.50;41.80;;;;;;20699;6702;336628;-75
2024/01/14 11:26:31;;;;;;;31.45;22.70;;;4.80;41.00;;;;;;20754;6726;305853;-76
2024/01/14 11:29:07;;;;;;;29.98;23.05;;;5.00;40.40;;;;;;20722;6717;338172;-74
2024/01/14 11:32:04;;;;;;;28.33;18.67;;;5.20;39.80;;;;;;20946;6732;117347;-75
2024/01/14 11:34:45;;;;;;;25.93;17.73;;;5.20;40.30;;;;;;20742;6736;117978;-77
2024/01/14 11:37:41;;;;;;;28.40;18.17;;;4.80;41.10;;;;;;20940;6732;118601;-77
2024/01/14 11:40:23;;;;;;;23.73;15.23;;;4.60;41.70;;;;;;21001;6717;117139;-77
2024/01/14 11:43:05;;;;;;;27.33;16.10;;;4.40;42.30;;;;;;20948;6717;118331;-78
2024/01/14 11:45:40;;;;;;;25.20;16.20;;;4.20;42.70;;;;;;20998;6717;118174;-77
2024/01/14 11:48:16;;;;;;;28.10;21.00;;;4.10;43.10;;;;;;20835;6717;275309;-79
2024/01/14 11:50:52;;;;;;;25.53;16.77;;;4.30;42.10;;;;;;21046;6703;119431;-77
2024/01/14 11:53:27;;;;;;;26.97;16.97;;;4.40;42.20;;;;;;20941;6702;120925;-77
2024/01/14 11:56:05;;;;;;;28.52;21.35;;;4.40;41.60;;;;;;20831;6703;320030;-78
2024/01/14 11:58:40;;;;;;;28.47;18.60;;;4.40;41.50;;;;;;21046;6703;117046;-75
2024/01/14 12:01:16;;;;;;;30.65;22.73;;;4.50;41.80;;;;;;20836;6694;333919;-79
2024/01/14 12:04:10;;;;;;;29.58;22.80;;;4.60;40.80;;;;;;20711;6691;334603;-75
2024/01/14 12:06:45;;;;;;;30.08;22.95;;;4.90;40.00;;;;;;20862;6691;277297;-76
2024/01/14 12:09:21;;;;;;;29.60;22.20;;;5.20;39.20;;;;;;20832;6691;335030;-79
2024/01/14 12:11:56;;;;;;;27.33;18.13;;;5.40;38.80;;;;;;21079;6690;117420;-78
2024/01/14 12:14:37;;;;;;;25.60;16.60;;;4.90;40.00;;;;;;20885;6691;117714;-77
2024/01/14 12:17:08;;;;;;;24.50;16.63;;;4.90;40.00;;;;;;21067;6691;117035;-77
2024/01/14 12:19:44;;;;;;;26.77;17.30;;;4.60;40.50;;;;;;21087;6691;118466;-77
2024/01/14 12:22:19;;;;;;;26.30;16.57;;;4.30;41.10;;;;;;21087;6691;116840;-79
2024/01/14 12:24:55;;;;;;;24.10;15.70;;;4.10;41.70;;;;;;20828;6762;117278;-79
2024/01/14 12:27:31;;;;;;;25.00;15.53;;;3.90;42.20;;;;;;21068;6696;116744;-79
2024/01/14 12:30:07;;;;;;;25.57;15.40;;;3.90;42.60;;;;;;21037;6696;117411;-79
2024/01/14 12:32:43;;;;;;;23.50;15.40;;;3.70;43.10;;;;;;21033;6696;117110;-75
2024/01/14 12:35:18;;;;;;;24.27;15.27;;;3.70;43.10;;;;;;21030;6696;117023;-77
2024/01/14 12:37:55;;;;;;;27.73;21.27;;;3.80;41.80;;;;;;20859;6678;334109;-80
2024/01/14 12:40:30;;;;;;;24.30;17.53;;;3.80;41.80;;;;;;21123;6689;119442;-76
2024/01/14 12:43:09;;;;;;;23.37;15.70;;;3.90;41.90;;;;;;21056;6678;119227;-77
2024/01/14 12:45:45;;;;;;;27.37;21.03;;;4.10;41.50;;;;;;20846;6693;275196;-79
2024/01/14 12:48:41;;;;;;;23.73;16.30;;;4.10;41.50;;;;;;21082;6697;69969;-75
2024/01/14 12:51:20;;;;;;;27.60;22.23;;;4.20;41.60;;;;;;20847;6693;304971;-71
2024/01/14 12:53:56;;;;;;;28.03;21.77;;;4.40;40.80;;;;;;20728;6699;308867;-75
2024/01/14 12:56:31;;;;;;;28.03;21.27;;;4.70;39.90;;;;;;20901;6694;275505;-80
2024/01/14 12:59:07;;;;;;;28.23;21.07;;;4.90;39.30;;;;;;20936;6694;303495;-78
2024/01/14 13:01:42;;;;;;;28.47;22.10;;;5.10;38.70;;;;;;20866;6701;302913;-76
2024/01/14 13:04:18;;;;;;;23.03;16.93;;;5.30;38.60;;;;;;20956;6707;116433;-79
2024/01/14 13:06:54;;;;;;;69.73;18.83;;;4.90;39.80;;;;;;21101;6707;117048;-77
2024/01/14 13:09:30;;;;;;;31.37;15.47;;;4.90;39.80;;;;;;21077;6698;116547;-78